createdAt,value
2023-06-29T00:02:00.580Z,16.50
2023-06-29T00:04:27.649Z,16.50
2023-06-29T00:06:55.820Z,16.50
2023-06-29T00:09:23.854Z,16.50
2023-06-29T00:11:51.084Z,16.50
2023-06-29T00:14:18.355Z,16.60
2023-06-29T00:16:45.509Z,16.50
2023-06-29T00:19:16.035Z,16.50
2023-06-29T00:21:43.794Z,16.40
2023-06-29T00:24:13.756Z,16.40
2023-06-29T00:26:40.875Z,16.40
2023-06-29T00:29:07.886Z,16.40
2023-06-29T00:31:35.078Z,16.40
2023-06-29T00:34:02.365Z,16.40
2023-06-29T00:36:29.408Z,16.30
2023-06-29T00:38:56.433Z,16.30
2023-06-29T00:41:23.447Z,16.20
2023-06-29T00:43:50.512Z,16.30
2023-06-29T00:46:20.290Z,16.20
2023-06-29T00:48:48.844Z,16.20
2023-06-29T00:51:17.654Z,16.20
2023-06-29T00:53:45.310Z,16.20
2023-06-29T00:56:12.629Z,16.10
2023-06-29T00:58:39.996Z,16.10
2023-06-29T01:01:07.072Z,16.00
2023-06-29T01:03:34.444Z,16.00
2023-06-29T01:06:05.800Z,16.10
2023-06-29T01:08:41.209Z,16.00
2023-06-29T01:11:09.263Z,16.00
2023-06-29T01:13:37.769Z,16.00
2023-06-29T01:16:06.350Z,16.10
2023-06-29T01:18:34.714Z,16.00
2023-06-29T01:21:03.674Z,16.00
2023-06-29T01:23:38.362Z,16.00
2023-06-29T01:26:06.592Z,16.00
2023-06-29T01:28:39.417Z,15.90
2023-06-29T01:31:06.832Z,15.90
2023-06-29T01:33:35.100Z,15.90
2023-06-29T01:36:09.187Z,15.90
2023-06-29T01:38:41.653Z,15.80
2023-06-29T01:41:12.194Z,15.90
2023-06-29T01:43:39.656Z,15.80
2023-06-29T01:46:06.872Z,15.80
2023-06-29T01:48:35.840Z,15.80
2023-06-29T01:51:03.755Z,15.80
2023-06-29T01:53:32.835Z,15.70
2023-06-29T01:56:00.171Z,15.70
2023-06-29T01:58:27.141Z,15.70
2023-06-29T02:00:54.192Z,15.60
2023-06-29T02:03:21.385Z,15.60
2023-06-29T02:05:48.362Z,15.60
2023-06-29T02:08:15.301Z,15.60
2023-06-29T02:10:42.528Z,15.60
2023-06-29T02:13:09.598Z,15.50
2023-06-29T02:15:36.548Z,15.50
2023-06-29T02:18:03.497Z,15.50
2023-06-29T02:20:30.603Z,15.50
2023-06-29T02:22:57.569Z,15.50
2023-06-29T02:25:24.588Z,15.50
2023-06-29T02:27:51.569Z,15.50
2023-06-29T02:30:18.551Z,15.40
2023-06-29T02:32:45.581Z,15.40
2023-06-29T02:35:12.544Z,15.40
2023-06-29T02:37:39.512Z,15.40
2023-06-29T02:40:07.118Z,15.40
2023-06-29T02:42:34.165Z,15.40
2023-06-29T02:45:01.151Z,15.40
2023-06-29T02:47:29.551Z,15.40
2023-06-29T02:49:56.540Z,15.50
2023-06-29T02:52:23.570Z,15.40
2023-06-29T02:54:50.527Z,15.50
2023-06-29T02:57:17.637Z,15.50
2023-06-29T02:59:44.612Z,15.50
2023-06-29T03:02:11.613Z,15.30
2023-06-29T03:04:38.548Z,15.30
2023-06-29T03:07:07.879Z,15.40
2023-06-29T03:09:35.146Z,15.40
2023-06-29T03:12:02.173Z,15.50
2023-06-29T03:14:29.154Z,15.40
2023-06-29T03:16:56.234Z,15.50
2023-06-29T03:19:23.252Z,15.50
2023-06-29T03:21:50.536Z,15.60
2023-06-29T03:24:17.496Z,15.60
2023-06-29T03:26:44.498Z,15.60
2023-06-29T03:29:11.478Z,15.80
2023-06-29T03:31:38.421Z,15.80
2023-06-29T03:34:05.358Z,15.90
2023-06-29T03:36:32.460Z,15.90
2023-06-29T03:38:59.430Z,15.90
2023-06-29T03:41:26.448Z,15.90
2023-06-29T03:43:53.403Z,15.90
2023-06-29T03:46:20.352Z,15.90
2023-06-29T03:48:47.456Z,15.90
2023-06-29T03:51:15.146Z,15.90
2023-06-29T03:53:42.122Z,16.00
2023-06-29T03:56:11.474Z,16.00
2023-06-29T03:58:38.770Z,16.00
2023-06-29T04:01:05.831Z,16.00
2023-06-29T04:03:32.885Z,16.10
2023-06-29T04:06:00.460Z,16.00
2023-06-29T04:08:28.180Z,16.10
2023-06-29T04:10:55.303Z,16.10
2023-06-29T04:13:22.265Z,16.10
2023-06-29T04:15:49.169Z,16.10
2023-06-29T04:18:16.871Z,16.10
2023-06-29T04:20:44.000Z,16.20
2023-06-29T04:23:12.922Z,16.20
2023-06-29T04:25:43.751Z,16.30
2023-06-29T04:28:12.866Z,16.30
2023-06-29T04:30:46.175Z,16.30
2023-06-29T04:33:16.181Z,16.40
2023-06-29T04:35:46.628Z,16.50
2023-06-29T04:38:14.601Z,16.50
2023-06-29T04:40:41.863Z,16.50
2023-06-29T04:43:08.867Z,16.50
2023-06-29T04:45:36.164Z,16.60
2023-06-29T04:48:03.344Z,16.70
2023-06-29T04:50:36.664Z,16.70
2023-06-29T04:53:10.549Z,16.80
2023-06-29T04:55:39.362Z,16.90
2023-06-29T04:58:06.973Z,17.00
2023-06-29T05:00:34.324Z,17.10
2023-06-29T05:03:01.770Z,17.20
2023-06-29T05:05:28.945Z,17.30
2023-06-29T05:07:56.288Z,17.40
2023-06-29T05:10:24.420Z,17.50
2023-06-29T05:12:51.412Z,17.50
2023-06-29T05:15:18.510Z,17.60
2023-06-29T05:17:45.503Z,17.70
2023-06-29T05:20:14.421Z,17.70
2023-06-29T05:22:41.347Z,17.80
2023-06-29T05:25:08.648Z,17.80
2023-06-29T05:27:35.649Z,17.70
2023-06-29T05:30:03.987Z,17.80
2023-06-29T05:32:31.653Z,17.80
2023-06-29T05:34:58.677Z,17.80
2023-06-29T05:37:26.063Z,17.80
2023-06-29T05:39:53.064Z,17.80
2023-06-29T05:42:20.033Z,17.90
2023-06-29T05:44:47.099Z,17.80
2023-06-29T05:47:14.181Z,17.80
2023-06-29T05:49:41.174Z,17.80
2023-06-29T05:52:08.256Z,17.80
2023-06-29T05:54:35.289Z,17.80
2023-06-29T05:57:02.249Z,17.70
2023-06-29T05:59:31.062Z,17.80
2023-06-29T06:01:58.332Z,17.80
2023-06-29T06:04:25.554Z,17.80
2023-06-29T06:06:52.542Z,17.80
2023-06-29T06:09:19.494Z,17.80
2023-06-29T06:11:46.711Z,17.80
2023-06-29T06:14:13.642Z,17.90
2023-06-29T06:16:40.905Z,17.90
2023-06-29T06:19:07.901Z,18.00
2023-06-29T06:21:34.900Z,18.00
2023-06-29T06:24:01.820Z,18.10
2023-06-29T06:26:29.673Z,18.10
2023-06-29T06:28:56.720Z,18.20
2023-06-29T06:31:33.537Z,18.20
2023-06-29T06:34:01.979Z,18.30
2023-06-29T06:36:32.739Z,18.30
2023-06-29T06:39:00.218Z,18.40
2023-06-29T06:41:27.313Z,18.40
2023-06-29T06:43:54.478Z,18.40
2023-06-29T06:46:21.667Z,18.40
2023-06-29T06:48:49.451Z,18.50
2023-06-29T06:51:16.793Z,18.70
2023-06-29T06:53:43.777Z,18.80
2023-06-29T06:56:10.849Z,18.80
2023-06-29T06:58:37.854Z,18.90
2023-06-29T07:01:04.920Z,19.00
2023-06-29T07:03:31.992Z,19.10
2023-06-29T07:05:59.363Z,19.10
2023-06-29T07:08:26.629Z,19.20
2023-06-29T07:10:53.602Z,19.10
2023-06-29T07:13:20.604Z,19.20
2023-06-29T07:15:48.125Z,19.30
2023-06-29T07:18:15.320Z,19.30
2023-06-29T07:25:42.771Z,19.30
2023-06-29T07:28:10.192Z,19.30
2023-06-29T07:30:37.191Z,19.50
2023-06-29T07:33:04.261Z,19.60
2023-06-29T07:35:31.303Z,19.80
2023-06-29T07:37:58.265Z,20.00
2023-06-29T07:40:25.518Z,20.00
2023-06-29T07:42:52.587Z,20.00
2023-06-29T07:45:19.525Z,20.10
2023-06-29T07:47:46.706Z,20.10
2023-06-29T07:50:13.770Z,20.20
2023-06-29T07:52:41.067Z,20.40
2023-06-29T07:55:08.406Z,20.50
2023-06-29T08:00:07.922Z,20.40
2023-06-29T08:02:34.937Z,20.50
2023-06-29T08:07:33.469Z,20.60
2023-06-29T08:10:00.532Z,20.70
2023-06-29T08:12:27.503Z,20.80
2023-06-29T08:14:54.467Z,20.90
2023-06-29T08:17:21.403Z,21.10
2023-06-29T08:19:48.364Z,21.10
2023-06-29T08:22:15.300Z,21.30
2023-06-29T08:24:42.261Z,21.40
2023-06-29T08:27:09.522Z,21.50
2023-06-29T08:29:39.538Z,21.50
2023-06-29T08:32:07.469Z,21.60
2023-06-29T08:34:34.566Z,21.50
2023-06-29T08:37:01.876Z,21.60
2023-06-29T08:39:28.791Z,21.70
2023-06-29T08:41:59.080Z,21.80
2023-06-29T08:44:28.065Z,21.90
2023-06-29T08:47:00.372Z,22.00
2023-06-29T08:49:28.714Z,22.10
2023-06-29T08:52:01.099Z,22.30
2023-06-29T08:54:29.331Z,22.20
2023-06-29T08:56:57.154Z,22.20
2023-06-29T08:59:25.135Z,22.20
2023-06-29T09:01:53.302Z,22.10
2023-06-29T09:04:20.429Z,22.20
2023-06-29T09:06:48.009Z,22.20
2023-06-29T09:09:15.585Z,22.20
2023-06-29T09:11:43.835Z,22.30
2023-06-29T09:14:11.026Z,22.40
2023-06-29T09:16:53.440Z,22.50
2023-06-29T09:19:21.211Z,21.90
2023-06-29T09:21:49.106Z,22.50
2023-06-29T09:24:17.453Z,22.70
2023-06-29T09:26:45.413Z,22.70
2023-06-29T09:29:12.334Z,22.60
2023-06-29T09:31:39.368Z,22.80
2023-06-29T09:34:20.376Z,22.90
2023-06-29T09:36:48.515Z,22.80
2023-06-29T09:39:16.299Z,22.80
2023-06-29T09:41:53.254Z,22.80
2023-06-29T09:44:21.399Z,22.80
2023-06-29T09:49:07.039Z,22.90
2023-06-29T09:49:49.243Z,22.90
2023-06-29T09:52:17.488Z,23.00
2023-06-29T09:54:44.940Z,23.00
2023-06-29T09:57:12.639Z,23.10
2023-06-29T09:59:43.114Z,23.10
2023-06-29T10:02:10.245Z,23.10
2023-06-29T10:04:37.958Z,23.10
2023-06-29T10:07:18.290Z,23.30
2023-06-29T10:09:51.487Z,23.40
2023-06-29T10:12:19.697Z,23.50
2023-06-29T10:14:48.152Z,23.60
2023-06-29T10:17:22.091Z,23.60
2023-06-29T10:19:51.677Z,23.50
2023-06-29T10:22:19.902Z,23.60
2023-06-29T10:24:55.508Z,23.70
2023-06-29T10:27:29.583Z,23.60
2023-06-29T10:29:56.894Z,23.70
2023-06-29T10:32:31.968Z,23.70
2023-06-29T10:35:05.981Z,23.80
2023-06-29T10:37:47.101Z,23.90
2023-06-29T10:40:15.843Z,24.00
2023-06-29T10:42:42.895Z,24.10
2023-06-29T10:45:20.359Z,24.10
2023-06-29T10:48:01.307Z,24.10
2023-06-29T10:50:32.955Z,24.10
2023-06-29T10:53:00.986Z,24.10
2023-06-29T10:55:38.373Z,24.10
2023-06-29T10:58:15.996Z,24.20
2023-06-29T11:00:43.598Z,24.30
2023-06-29T11:03:12.363Z,24.30
2023-06-29T11:05:40.053Z,24.20
2023-06-29T11:08:08.479Z,24.30
2023-06-29T11:10:36.305Z,24.30
2023-06-29T11:13:09.272Z,24.30
2023-06-29T11:15:36.952Z,24.40
2023-06-29T11:18:06.238Z,24.30
2023-06-29T11:20:37.866Z,24.30
2023-06-29T11:23:05.185Z,24.30
2023-06-29T11:25:32.359Z,24.30
2023-06-29T11:28:00.217Z,24.30
2023-06-29T11:30:27.322Z,24.20
2023-06-29T11:32:54.933Z,24.30
2023-06-29T11:35:23.338Z,24.40
2023-06-29T11:37:52.292Z,24.40
2023-06-29T11:40:24.550Z,24.50
2023-06-29T11:42:51.864Z,24.50
2023-06-29T11:45:19.235Z,24.60
2023-06-29T11:47:52.057Z,24.60
2023-06-29T11:50:19.331Z,24.70
2023-06-29T11:52:46.868Z,24.70
2023-06-29T11:55:15.117Z,24.80
2023-06-29T11:57:43.899Z,24.70
2023-06-29T12:00:31.027Z,24.70
2023-06-29T12:02:58.870Z,24.70
2023-06-29T12:05:31.995Z,24.60
2023-06-29T12:08:06.920Z,24.60
2023-06-29T12:10:38.911Z,24.70
2023-06-29T12:13:06.785Z,24.80
2023-06-29T12:15:34.241Z,24.80
2023-06-29T12:18:14.914Z,24.80
2023-06-29T12:20:45.188Z,24.80
2023-06-29T12:23:15.008Z,24.80
2023-06-29T12:25:44.254Z,24.90
2023-06-29T12:28:11.451Z,24.90
2023-06-29T12:30:38.518Z,24.80
2023-06-29T12:33:05.635Z,24.80
2023-06-29T12:35:32.641Z,24.80
2023-06-29T12:37:59.746Z,24.90
2023-06-29T12:40:26.851Z,24.80
2023-06-29T12:42:53.930Z,24.70
2023-06-29T12:45:21.072Z,24.60
2023-06-29T12:47:48.177Z,24.50
2023-06-29T12:50:15.337Z,24.50
2023-06-29T12:52:42.319Z,24.60
2023-06-29T12:55:09.469Z,24.70
2023-06-29T12:57:36.528Z,24.90
2023-06-29T13:00:05.942Z,24.80
2023-06-29T13:02:36.021Z,24.60
2023-06-29T13:05:03.280Z,24.50
2023-06-29T13:07:30.315Z,24.40
2023-06-29T13:09:58.381Z,24.40
2023-06-29T13:12:25.397Z,24.50
2023-06-29T13:14:52.432Z,24.60
2023-06-29T13:17:19.919Z,24.50
2023-06-29T13:19:48.612Z,24.40
2023-06-29T13:22:19.338Z,24.40
2023-06-29T13:24:48.144Z,24.50
2023-06-29T13:27:15.342Z,24.60
2023-06-29T13:29:42.408Z,24.70
2023-06-29T13:32:09.866Z,24.70
2023-06-29T13:34:36.942Z,24.60
2023-06-29T13:37:04.146Z,24.60
2023-06-29T13:39:31.468Z,24.60
2023-06-29T13:41:58.506Z,24.60
2023-06-29T13:44:25.481Z,24.80
2023-06-29T13:46:52.478Z,24.80
2023-06-29T13:49:19.560Z,24.90
2023-06-29T13:51:48.498Z,24.90
2023-06-29T13:54:16.904Z,24.90
2023-06-29T13:56:44.464Z,24.80
2023-06-29T13:59:11.770Z,24.90
2023-06-29T14:01:41.241Z,24.90
2023-06-29T14:04:10.391Z,24.90
2023-06-29T14:06:39.518Z,24.90
2023-06-29T14:09:09.560Z,24.90
2023-06-29T14:11:36.989Z,24.90
2023-06-29T14:14:04.149Z,24.80
2023-06-29T14:16:31.446Z,24.80
2023-06-29T14:19:00.333Z,24.80
2023-06-29T14:21:27.493Z,24.80
2023-06-29T14:23:54.937Z,24.80
2023-06-29T14:26:22.413Z,24.80
2023-06-29T14:28:49.608Z,24.80
2023-06-29T14:31:18.443Z,24.70
2023-06-29T14:33:46.026Z,24.60
2023-06-29T14:36:13.242Z,24.50
2023-06-29T14:38:40.200Z,24.50
2023-06-29T14:41:07.108Z,24.50
2023-06-29T14:43:34.167Z,24.50
2023-06-29T14:46:01.210Z,24.60
2023-06-29T14:48:28.206Z,24.60
2023-06-29T14:50:55.709Z,24.70
2023-06-29T14:53:23.837Z,24.70
2023-06-29T14:55:51.239Z,24.70
2023-06-29T14:58:18.396Z,24.60
2023-06-29T15:00:46.046Z,24.60
2023-06-29T15:03:13.512Z,24.60
2023-06-29T15:05:40.724Z,24.60
2023-06-29T15:08:07.708Z,24.70
2023-06-29T15:10:34.664Z,24.80
2023-06-29T15:13:01.667Z,24.80
2023-06-29T15:15:28.696Z,24.80
2023-06-29T15:17:55.806Z,24.80
2023-06-29T15:20:22.984Z,24.60
2023-06-29T15:22:49.897Z,24.50
2023-06-29T15:25:16.776Z,24.50
2023-06-29T15:27:43.809Z,24.60
2023-06-29T15:30:10.978Z,24.60
2023-06-29T15:32:38.198Z,24.70
2023-06-29T15:35:06.546Z,24.60
2023-06-29T15:37:34.631Z,24.60
2023-06-29T15:40:01.651Z,24.60
2023-06-29T15:42:29.681Z,24.60
2023-06-29T15:44:56.927Z,24.50
2023-06-29T15:47:24.252Z,24.60
2023-06-29T15:49:51.263Z,24.60
2023-06-29T15:52:18.432Z,24.60
2023-06-29T15:54:45.528Z,24.60
2023-06-29T15:57:12.704Z,24.60
2023-06-29T15:59:39.840Z,24.60
2023-06-29T16:02:07.933Z,24.50
2023-06-29T16:04:35.057Z,24.50
2023-06-29T16:07:02.388Z,24.40
2023-06-29T16:09:33.331Z,24.30
2023-06-29T16:12:00.951Z,24.20
2023-06-29T16:14:27.962Z,24.20
2023-06-29T16:16:54.985Z,24.20
2023-06-29T16:19:22.183Z,24.10
2023-06-29T16:21:49.190Z,24.10
2023-06-29T16:24:16.339Z,24.20
2023-06-29T16:26:44.282Z,24.30
2023-06-29T16:29:11.216Z,24.30
2023-06-29T16:31:38.350Z,24.40
2023-06-29T16:34:05.444Z,24.40
2023-06-29T16:36:32.898Z,24.30
2023-06-29T16:39:00.090Z,24.30
2023-06-29T16:41:27.108Z,24.30
2023-06-29T16:43:55.251Z,24.30
2023-06-29T16:46:23.931Z,24.20
2023-06-29T16:49:01.004Z,24.20
2023-06-29T16:51:29.504Z,24.30
2023-06-29T16:53:57.918Z,24.30
2023-06-29T16:56:25.581Z,24.30
2023-06-29T16:58:52.804Z,24.20
2023-06-29T17:01:19.846Z,24.10
2023-06-29T17:03:47.039Z,24.10
2023-06-29T17:06:14.600Z,24.10
2023-06-29T17:08:41.723Z,24.00
2023-06-29T17:11:08.858Z,23.90
2023-06-29T17:13:36.239Z,23.80
2023-06-29T17:16:04.623Z,23.70
2023-06-29T17:18:31.719Z,23.70
2023-06-29T17:20:58.590Z,23.70
2023-06-29T17:23:25.496Z,23.70
2023-06-29T17:25:52.856Z,23.70
2023-06-29T17:28:21.334Z,23.70
2023-06-29T17:30:48.390Z,23.60
2023-06-29T17:33:16.062Z,23.60
2023-06-29T17:35:43.341Z,23.60
2023-06-29T17:38:10.572Z,23.50
2023-06-29T17:40:37.482Z,23.50
2023-06-29T17:43:04.481Z,23.50
2023-06-29T17:45:31.388Z,23.40
2023-06-29T17:47:58.590Z,23.40
2023-06-29T17:50:25.790Z,23.30
2023-06-29T17:52:52.749Z,23.30
2023-06-29T17:55:19.861Z,23.20
2023-06-29T17:57:46.874Z,23.20
2023-06-29T18:00:16.489Z,23.20
2023-06-29T18:02:43.925Z,23.20
2023-06-29T18:05:11.560Z,23.20
2023-06-29T18:07:39.120Z,23.10
2023-06-29T18:10:08.334Z,23.10
2023-06-29T18:12:36.517Z,23.10
2023-06-29T18:15:04.408Z,23.00
2023-06-29T18:17:31.509Z,23.00
2023-06-29T18:19:59.371Z,22.90
2023-06-29T18:22:26.514Z,22.80
2023-06-29T18:24:53.637Z,22.60
2023-06-29T18:27:22.149Z,22.50
2023-06-29T18:29:49.093Z,22.40
2023-06-29T18:32:16.025Z,22.40
2023-06-29T18:34:43.864Z,22.30
2023-06-29T18:37:10.872Z,22.30
2023-06-29T18:39:37.855Z,22.20
2023-06-29T18:42:05.329Z,22.20
2023-06-29T18:44:32.641Z,22.10
2023-06-29T18:47:11.292Z,22.00
2023-06-29T18:52:10.317Z,21.80
2023-06-29T18:54:37.493Z,21.80
2023-06-29T18:57:06.190Z,21.70
2023-06-29T18:59:34.579Z,21.60
2023-06-29T19:02:02.905Z,21.50
2023-06-29T19:04:30.601Z,21.50
2023-06-29T19:06:57.975Z,21.40
2023-06-29T19:09:25.169Z,21.30
2023-06-29T19:11:52.168Z,21.20
2023-06-29T19:14:19.182Z,21.10
2023-06-29T19:16:46.416Z,21.00
2023-06-29T19:19:13.525Z,20.90
2023-06-29T19:21:48.448Z,20.80
2023-06-29T19:24:17.124Z,20.70
2023-06-29T19:26:44.583Z,20.60
2023-06-29T19:29:12.621Z,20.40
2023-06-29T19:31:42.015Z,20.40
2023-06-29T19:34:10.929Z,20.30
2023-06-29T19:36:37.871Z,20.30
2023-06-29T19:39:04.814Z,20.30
2023-06-29T19:41:31.774Z,20.20
2023-06-29T19:43:58.768Z,20.10
2023-06-29T19:46:25.765Z,20.10
2023-06-29T19:48:53.012Z,20.00
2023-06-29T19:51:20.863Z,19.90
2023-06-29T19:53:48.021Z,19.80
2023-06-29T19:56:14.994Z,19.80
2023-06-29T19:58:42.102Z,19.80
2023-06-29T20:01:09.247Z,19.80
2023-06-29T20:03:36.293Z,19.70
2023-06-29T20:06:04.351Z,19.60
2023-06-29T20:08:31.303Z,19.50
2023-06-29T20:10:58.519Z,19.40
2023-06-29T20:13:25.500Z,19.20
2023-06-29T20:15:52.669Z,19.10
2023-06-29T20:18:19.717Z,19.00
2023-06-29T20:20:46.773Z,18.90
2023-06-29T20:23:13.716Z,18.80
2023-06-29T20:25:40.658Z,18.70
2023-06-29T20:28:07.726Z,18.70
2023-06-29T20:30:34.818Z,18.70
2023-06-29T20:33:01.878Z,18.60
2023-06-29T20:35:29.390Z,18.60
2023-06-29T20:37:56.359Z,18.50
2023-06-29T20:40:24.453Z,18.40
2023-06-29T20:42:51.640Z,18.40
2023-06-29T20:45:18.662Z,18.30
2023-06-29T20:47:45.805Z,18.30
2023-06-29T20:50:12.930Z,18.30
2023-06-29T20:52:40.306Z,18.20
2023-06-29T20:55:07.874Z,18.10
2023-06-29T20:57:38.658Z,18.10
2023-06-29T21:00:13.154Z,18.00
2023-06-29T21:02:40.492Z,18.00
2023-06-29T21:05:08.185Z,18.00
2023-06-29T21:07:35.842Z,17.90
2023-06-29T21:10:26.030Z,17.80
2023-06-29T21:12:53.395Z,18.60
2023-06-29T21:15:20.563Z,17.70
2023-06-29T21:17:47.778Z,17.70
2023-06-29T21:20:15.100Z,17.80
2023-06-29T21:22:42.301Z,17.70
2023-06-29T21:25:10.002Z,17.70
2023-06-29T21:27:37.932Z,17.60
2023-06-29T21:30:05.698Z,17.60
2023-06-29T21:32:32.837Z,17.60
2023-06-29T21:35:01.385Z,17.70
2023-06-29T21:37:28.577Z,17.60
2023-06-29T21:39:56.075Z,17.60
2023-06-29T21:42:23.377Z,17.50
2023-06-29T21:44:50.360Z,17.50
2023-06-29T21:47:17.437Z,17.40
2023-06-29T21:49:44.381Z,17.30
2023-06-29T21:52:11.345Z,17.30
2023-06-29T21:54:38.633Z,17.30
2023-06-29T21:57:06.069Z,17.20
2023-06-29T21:59:33.117Z,17.10
2023-06-29T22:02:01.039Z,17.10
2023-06-29T22:04:28.026Z,17.10
2023-06-29T22:07:02.821Z,17.00
2023-06-29T22:09:38.936Z,17.00
2023-06-29T22:12:06.678Z,17.00
2023-06-29T22:14:33.604Z,17.00
2023-06-29T22:17:00.555Z,17.00
2023-06-29T22:19:28.044Z,17.00
2023-06-29T22:21:58.842Z,16.90
2023-06-29T22:24:25.956Z,16.90
2023-06-29T22:26:52.942Z,16.90
2023-06-29T22:29:19.926Z,16.80
2023-06-29T22:31:47.379Z,16.80
2023-06-29T22:34:15.972Z,16.80
2023-06-29T22:36:42.895Z,16.70
2023-06-29T22:39:10.534Z,16.70
2023-06-29T22:41:37.580Z,16.70
2023-06-29T22:44:04.712Z,16.70
2023-06-29T22:46:33.101Z,16.60
2023-06-29T22:49:00.120Z,16.60
2023-06-29T22:51:27.554Z,16.50
2023-06-29T22:53:54.782Z,16.50
2023-06-29T22:56:22.374Z,16.50
2023-06-29T22:59:10.225Z,16.50
2023-06-29T23:01:37.810Z,16.50
2023-06-29T23:04:07.614Z,16.50
2023-06-29T23:06:41.968Z,16.40
2023-06-29T23:09:10.139Z,16.40
2023-06-29T23:11:38.293Z,16.30
2023-06-29T23:14:06.227Z,16.30
2023-06-29T23:16:33.723Z,16.20
2023-06-29T23:19:01.336Z,16.20
2023-06-29T23:21:28.975Z,16.10
2023-06-29T23:23:56.559Z,16.20
2023-06-29T23:26:23.836Z,16.10
2023-06-29T23:28:52.003Z,16.10
2023-06-29T23:31:19.931Z,16.10
2023-06-29T23:33:50.296Z,16.00
2023-06-29T23:36:22.515Z,16.00
2023-06-29T23:38:50.418Z,16.00
2023-06-29T23:41:18.905Z,16.00
2023-06-29T23:43:46.825Z,16.00
2023-06-29T23:46:14.472Z,15.90
2023-06-29T23:48:42.227Z,15.90
2023-06-29T23:51:09.929Z,15.90
2023-06-29T23:53:37.973Z,15.90
2023-06-29T23:56:05.658Z,15.90
2023-06-29T23:58:33.202Z,15.90
